sensor_id;sensor_type;location;lat;lon;timestamp;pressure;altitude;pressure_sealevel;temperature;humidity
24486;BME280;13449;49.374;8.584;2023-05-19T00:01:42;100986.53;;;11.68;56.16
24486;BME280;13449;49.374;8.584;2023-05-19T00:04:14;100991.59;;;11.72;56.51
24486;BME280;13449;49.374;8.584;2023-05-19T00:06:41;100985.78;;;11.66;55.49
24486;BME280;13449;49.374;8.584;2023-05-19T00:09:12;100989.91;;;11.70;55.59
24486;BME280;13449;49.374;8.584;2023-05-19T00:11:39;100979.53;;;11.67;56.10
24486;BME280;13449;49.374;8.584;2023-05-19T00:14:09;100986.97;;;11.62;55.76
24486;BME280;13449;49.374;8.584;2023-05-19T00:16:40;100974.94;;;11.58;55.29
24486;BME280;13449;49.374;8.584;2023-05-19T00:19:07;100976.41;;;11.62;55.76
24486;BME280;13449;49.374;8.584;2023-05-19T00:21:37;100977.66;;;11.69;57.05
24486;BME280;13449;49.374;8.584;2023-05-19T00:24:04;100969.41;;;11.74;55.09
24486;BME280;13449;49.374;8.584;2023-05-19T00:26:31;100973.03;;;11.60;55.04
24486;BME280;13449;49.374;8.584;2023-05-19T00:28:58;100974.94;;;11.58;55.95
24486;BME280;13449;49.374;8.584;2023-05-19T00:31:25;100976.63;;;11.59;55.53
24486;BME280;13449;49.374;8.584;2023-05-19T00:33:53;100974.34;;;11.55;55.88
24486;BME280;13449;49.374;8.584;2023-05-19T00:36:20;100974.59;;;11.39;55.86
24486;BME280;13449;49.374;8.584;2023-05-19T00:38:49;100977.75;;;11.44;55.28
24486;BME280;13449;49.374;8.584;2023-05-19T00:41:19;100996.34;;;11.30;57.60
24486;BME280;13449;49.374;8.584;2023-05-19T00:43:48;100977.16;;;11.28;55.82
24486;BME280;13449;49.374;8.584;2023-05-19T00:46:15;100986.22;;;11.36;55.55
24486;BME280;13449;49.374;8.584;2023-05-19T00:48:44;100986.53;;;11.32;55.72
24486;BME280;13449;49.374;8.584;2023-05-19T00:51:14;100983.03;;;11.31;55.18
24486;BME280;13449;49.374;8.584;2023-05-19T00:53:43;100983.38;;;11.27;55.73
24486;BME280;13449;49.374;8.584;2023-05-19T00:56:15;100983.28;;;11.16;56.55
24486;BME280;13449;49.374;8.584;2023-05-19T00:58:43;100996.59;;;11.01;58.41
24486;BME280;13449;49.374;8.584;2023-05-19T01:01:10;100987.34;;;10.96;57.13
24486;BME280;13449;49.374;8.584;2023-05-19T01:03:38;100988.28;;;10.95;57.83
24486;BME280;13449;49.374;8.584;2023-05-19T01:06:05;100985.66;;;10.95;57.40
24486;BME280;13449;49.374;8.584;2023-05-19T01:08:36;100989.47;;;10.91;58.31
24486;BME280;13449;49.374;8.584;2023-05-19T01:11:03;100981.00;;;10.86;58.44
24486;BME280;13449;49.374;8.584;2023-05-19T01:13:30;100968.56;;;10.88;57.71
24486;BME280;13449;49.374;8.584;2023-05-19T01:16:08;100975.53;;;10.89;57.27
24486;BME280;13449;49.374;8.584;2023-05-19T01:18:43;100971.41;;;10.97;57.95
24486;BME280;13449;49.374;8.584;2023-05-19T01:21:24;100972.38;;;10.96;58.90
24486;BME280;13449;49.374;8.584;2023-05-19T01:29:16;100959.28;;;10.95;56.64
24486;BME280;13449;49.374;8.584;2023-05-19T01:31:54;100961.31;;;10.91;56.98
24486;BME280;13449;49.374;8.584;2023-05-19T01:34:24;100967.63;;;10.89;57.67
24486;BME280;13449;49.374;8.584;2023-05-19T01:36:57;100963.28;;;11.00;56.46
24486;BME280;13449;49.374;8.584;2023-05-19T01:39:28;100964.22;;;10.99;55.82
24486;BME280;13449;49.374;8.584;2023-05-19T01:41:56;100964.34;;;10.98;57.00
24486;BME280;13449;49.374;8.584;2023-05-19T01:44:25;100962.56;;;10.98;56.87
24486;BME280;13449;49.374;8.584;2023-05-19T01:46:52;100961.59;;;10.99;56.45
24486;BME280;13449;49.374;8.584;2023-05-19T01:49:19;100968.78;;;10.97;57.07
24486;BME280;13449;49.374;8.584;2023-05-19T01:51:45;100972.69;;;10.92;57.32
24486;BME280;13449;49.374;8.584;2023-05-19T01:54:15;100972.25;;;10.98;56.74
24486;BME280;13449;49.374;8.584;2023-05-19T01:59:41;100968.34;;;11.03;55.91
24486;BME280;13449;49.374;8.584;2023-05-19T02:02:34;100975.81;;;11.09;55.58
24486;BME280;13449;49.374;8.584;2023-05-19T02:05:13;100985.31;;;11.12;55.88
24486;BME280;13449;49.374;8.584;2023-05-19T02:07:49;100987.31;;;11.08;56.15
24486;BME280;13449;49.374;8.584;2023-05-19T02:10:22;100985.53;;;11.09;55.86
24486;BME280;13449;49.374;8.584;2023-05-19T02:12:52;100982.91;;;11.09;55.93
24486;BME280;13449;49.374;8.584;2023-05-19T02:15:24;100983.13;;;11.06;56.02
24486;BME280;13449;49.374;8.584;2023-05-19T02:17:54;100989.00;;;11.09;56.12
24486;BME280;13449;49.374;8.584;2023-05-19T02:20:24;100988.78;;;11.13;56.33
24486;BME280;13449;49.374;8.584;2023-05-19T02:22:51;100992.81;;;11.05;57.83
24486;BME280;13449;49.374;8.584;2023-05-19T02:25:17;100984.91;;;11.05;56.38
24486;BME280;13449;49.374;8.584;2023-05-19T02:27:44;100982.28;;;11.05;55.76
24486;BME280;13449;49.374;8.584;2023-05-19T02:30:11;100984.59;;;10.97;56.96
24486;BME280;13449;49.374;8.584;2023-05-19T02:32:44;100986.50;;;10.95;56.51
24486;BME280;13449;49.374;8.584;2023-05-19T02:35:15;100994.06;;;10.87;58.23
24486;BME280;13449;49.374;8.584;2023-05-19T02:37:42;100986.72;;;10.79;57.87
24486;BME280;13449;49.374;8.584;2023-05-19T02:40:11;100991.13;;;10.66;58.42
24486;BME280;13449;49.374;8.584;2023-05-19T02:42:37;100990.91;;;10.69;57.68
24486;BME280;13449;49.374;8.584;2023-05-19T02:45:04;100986.59;;;10.81;57.16
24486;BME280;13449;49.374;8.584;2023-05-19T02:47:33;100983.97;;;10.81;57.82
24486;BME280;13449;49.374;8.584;2023-05-19T02:50:03;100978.38;;;10.73;58.41
24486;BME280;13449;49.374;8.584;2023-05-19T02:52:30;100972.38;;;10.71;57.73
24486;BME280;13449;49.374;8.584;2023-05-19T02:54:59;100991.25;;;10.65;59.21
24486;BME280;13449;49.374;8.584;2023-05-19T02:57:25;100983.66;;;10.60;59.67
24486;BME280;13449;49.374;8.584;2023-05-19T02:59:55;100977.97;;;10.54;59.88
24486;BME280;13449;49.374;8.584;2023-05-19T03:02:22;100988.91;;;10.47;59.88
24486;BME280;13449;49.374;8.584;2023-05-19T03:04:48;100981.88;;;10.48;58.71
24486;BME280;13449;49.374;8.584;2023-05-19T03:07:17;101000.41;;;10.46;60.58
24486;BME280;13449;49.374;8.584;2023-05-19T03:09:50;100981.13;;;10.46;58.98
24486;BME280;13449;49.374;8.584;2023-05-19T03:12:17;100987.31;;;10.32;60.48
24486;BME280;13449;49.374;8.584;2023-05-19T03:14:44;100993.00;;;10.26;61.13
24486;BME280;13449;49.374;8.584;2023-05-19T03:17:11;101003.38;;;10.15;63.83
24486;BME280;13449;49.374;8.584;2023-05-19T03:19:37;100999.44;;;10.08;62.38
24486;BME280;13449;49.374;8.584;2023-05-19T03:22:04;101016.22;;;9.93;64.52
24486;BME280;13449;49.374;8.584;2023-05-19T03:24:30;101012.13;;;9.88;64.07
24486;BME280;13449;49.374;8.584;2023-05-19T03:26:57;101016.00;;;9.83;64.34
24486;BME280;13449;49.374;8.584;2023-05-19T03:29:24;101011.13;;;9.77;65.31
24486;BME280;13449;49.374;8.584;2023-05-19T03:31:50;101016.16;;;9.67;66.13
24486;BME280;13449;49.374;8.584;2023-05-19T03:34:17;101018.59;;;9.56;66.08
24486;BME280;13449;49.374;8.584;2023-05-19T03:36:43;101009.22;;;9.52;66.61
24486;BME280;13449;49.374;8.584;2023-05-19T03:39:14;101002.81;;;9.56;64.94
24486;BME280;13449;49.374;8.584;2023-05-19T03:41:41;101004.50;;;9.57;64.35
24486;BME280;13449;49.374;8.584;2023-05-19T03:44:08;101009.78;;;9.57;64.45
24486;BME280;13449;49.374;8.584;2023-05-19T03:46:34;101003.56;;;9.58;63.63
24486;BME280;13449;49.374;8.584;2023-05-19T03:49:01;101006.25;;;9.71;63.63
24486;BME280;13449;49.374;8.584;2023-05-19T03:51:27;101010.28;;;9.76;63.05
24486;BME280;13449;49.374;8.584;2023-05-19T03:53:55;100998.44;;;9.83;61.33
24486;BME280;13449;49.374;8.584;2023-05-19T03:56:22;101015.91;;;9.84;62.13
24486;BME280;13449;49.374;8.584;2023-05-19T03:58:50;101017.91;;;9.81;62.64
24486;BME280;13449;49.374;8.584;2023-05-19T04:01:16;101004.63;;;9.82;61.71
24486;BME280;13449;49.374;8.584;2023-05-19T04:03:43;101017.78;;;9.82;62.86
24486;BME280;13449;49.374;8.584;2023-05-19T04:06:12;101008.53;;;9.89;61.47
24486;BME280;13449;49.374;8.584;2023-05-19T04:08:38;101011.53;;;9.98;61.25
24486;BME280;13449;49.374;8.584;2023-05-19T04:11:05;101019.44;;;9.98;61.34
24486;BME280;13449;49.374;8.584;2023-05-19T04:13:33;101007.66;;;10.03;61.44
24486;BME280;13449;49.374;8.584;2023-05-19T04:16:00;101006.47;;;10.22;60.74
24486;BME280;13449;49.374;8.584;2023-05-19T04:18:26;101001.66;;;10.28;59.85
24486;BME280;13449;49.374;8.584;2023-05-19T04:20:54;101007.97;;;10.26;60.20
24486;BME280;13449;49.374;8.584;2023-05-19T04:23:21;101011.16;;;10.43;58.86
24486;BME280;13449;49.374;8.584;2023-05-19T04:25:48;101015.16;;;10.49;58.80
24486;BME280;13449;49.374;8.584;2023-05-19T04:28:17;101008.84;;;10.52;59.28
24486;BME280;13449;49.374;8.584;2023-05-19T04:30:47;101010.72;;;10.49;60.29
24486;BME280;13449;49.374;8.584;2023-05-19T04:33:14;101019.44;;;10.37;61.99
24486;BME280;13449;49.374;8.584;2023-05-19T04:35:40;101033.97;;;10.30;63.50
24486;BME280;13449;49.374;8.584;2023-05-19T04:38:11;101028.38;;;10.22;64.03
24486;BME280;13449;49.374;8.584;2023-05-19T04:40:40;101032.13;;;10.18;64.53
24486;BME280;13449;49.374;8.584;2023-05-19T04:43:07;101052.84;;;10.10;65.84
24486;BME280;13449;49.374;8.584;2023-05-19T04:45:35;101057.75;;;10.02;66.63
24486;BME280;13449;49.374;8.584;2023-05-19T04:48:03;101052.50;;;10.02;65.94
24486;BME280;13449;49.374;8.584;2023-05-19T04:50:29;101052.69;;;9.99;66.09
24486;BME280;13449;49.374;8.584;2023-05-19T04:53:00;101053.97;;;10.06;64.39
24486;BME280;13449;49.374;8.584;2023-05-19T04:55:27;101050.41;;;10.07;65.93
24486;BME280;13449;49.374;8.584;2023-05-19T04:57:53;101052.66;;;10.13;65.40
24486;BME280;13449;49.374;8.584;2023-05-19T05:00:20;101055.91;;;10.16;66.87
24486;BME280;13449;49.374;8.584;2023-05-19T05:02:47;101042.47;;;10.21;65.42
24486;BME280;13449;49.374;8.584;2023-05-19T05:05:14;101050.16;;;10.24;65.65
24486;BME280;13449;49.374;8.584;2023-05-19T05:07:41;101045.66;;;10.26;65.48
24486;BME280;13449;49.374;8.584;2023-05-19T05:10:08;101049.47;;;10.35;65.91
24486;BME280;13449;49.374;8.584;2023-05-19T05:12:35;101058.66;;;10.42;67.40
24486;BME280;13449;49.374;8.584;2023-05-19T05:15:04;101046.56;;;10.52;64.83
24486;BME280;13449;49.374;8.584;2023-05-19T05:17:33;101046.22;;;10.57;65.02
24486;BME280;13449;49.374;8.584;2023-05-19T05:20:01;101053.53;;;10.66;65.05
24486;BME280;13449;49.374;8.584;2023-05-19T05:22:32;101055.75;;;10.72;65.97
24486;BME280;13449;49.374;8.584;2023-05-19T05:25:02;101047.44;;;10.78;64.14
24486;BME280;13449;49.374;8.584;2023-05-19T05:27:28;101049.53;;;10.86;62.29
24486;BME280;13449;49.374;8.584;2023-05-19T05:29:54;101042.91;;;10.93;62.69
24486;BME280;13449;49.374;8.584;2023-05-19T05:32:24;101043.84;;;10.92;62.15
24486;BME280;13449;49.374;8.584;2023-05-19T05:34:51;101043.09;;;11.02;62.62
24486;BME280;13449;49.374;8.584;2023-05-19T05:37:21;101049.31;;;11.14;63.45
24486;BME280;13449;49.374;8.584;2023-05-19T05:39:50;101044.47;;;11.21;63.93
24486;BME280;13449;49.374;8.584;2023-05-19T05:42:19;101036.41;;;11.35;63.10
24486;BME280;13449;49.374;8.584;2023-05-19T05:44:47;101037.47;;;11.45;63.13
24486;BME280;13449;49.374;8.584;2023-05-19T05:47:14;101023.31;;;11.46;60.96
24486;BME280;13449;49.374;8.584;2023-05-19T05:49:41;101020.25;;;11.52;60.75
24486;BME280;13449;49.374;8.584;2023-05-19T05:52:11;101014.53;;;11.58;59.62
24486;BME280;13449;49.374;8.584;2023-05-19T05:54:40;101016.28;;;11.70;59.73
24486;BME280;13449;49.374;8.584;2023-05-19T05:57:07;101013.72;;;11.82;59.94
24486;BME280;13449;49.374;8.584;2023-05-19T05:59:33;101016.91;;;11.98;59.77
24486;BME280;13449;49.374;8.584;2023-05-19T06:02:00;101020.09;;;12.14;59.67
24486;BME280;13449;49.374;8.584;2023-05-19T06:04:29;101012.00;;;12.28;59.02
24486;BME280;13449;49.374;8.584;2023-05-19T06:06:57;101017.00;;;12.55;59.63
24486;BME280;13449;49.374;8.584;2023-05-19T06:09:26;101008.28;;;12.66;58.60
24486;BME280;13449;49.374;8.584;2023-05-19T06:11:57;101018.84;;;12.77;58.16
24486;BME280;13449;49.374;8.584;2023-05-19T06:14:24;101016.94;;;12.90;58.27
24486;BME280;13449;49.374;8.584;2023-05-19T06:16:50;101013.94;;;13.06;58.46
24486;BME280;13449;49.374;8.584;2023-05-19T06:19:20;101010.84;;;13.12;57.59
24486;BME280;13449;49.374;8.584;2023-05-19T06:21:47;101011.69;;;13.35;58.70
24486;BME280;13449;49.374;8.584;2023-05-19T06:24:13;101002.63;;;13.60;56.93
24486;BME280;13449;49.374;8.584;2023-05-19T06:26:40;101002.84;;;13.68;56.27
24486;BME280;13449;49.374;8.584;2023-05-19T06:29:06;101007.03;;;13.82;56.36
24486;BME280;13449;49.374;8.584;2023-05-19T06:31:35;100997.28;;;13.83;54.46
24486;BME280;13449;49.374;8.584;2023-05-19T06:34:02;100991.03;;;13.72;53.73
24486;BME280;13449;49.374;8.584;2023-05-19T06:36:29;101006.09;;;14.04;54.26
24486;BME280;13449;49.374;8.584;2023-05-19T06:38:55;100989.34;;;14.03;53.65
24486;BME280;13449;49.374;8.584;2023-05-19T06:41:22;100997.47;;;14.23;54.56
24486;BME280;13449;49.374;8.584;2023-05-19T06:43:49;100996.16;;;14.49;54.65
24486;BME280;13449;49.374;8.584;2023-05-19T06:46:16;100988.81;;;14.42;52.40
24486;BME280;13449;49.374;8.584;2023-05-19T06:48:43;100995.69;;;14.65;52.95
24486;BME280;13449;49.374;8.584;2023-05-19T06:51:09;100990.19;;;14.78;52.31
24486;BME280;13449;49.374;8.584;2023-05-19T06:53:36;100985.91;;;14.65;51.79
24486;BME280;13449;49.374;8.584;2023-05-19T06:56:02;100995.56;;;14.97;52.93
24486;BME280;13449;49.374;8.584;2023-05-19T06:58:29;100979.31;;;14.81;51.01
24486;BME280;13449;49.374;8.584;2023-05-19T07:00:56;100988.50;;;14.77;52.54
24486;BME280;13449;49.374;8.584;2023-05-19T07:03:22;100991.34;;;14.85;52.04
24486;BME280;13449;49.374;8.584;2023-05-19T07:05:49;100991.03;;;15.09;52.11
24486;BME280;13449;49.374;8.584;2023-05-19T07:08:16;100983.63;;;15.12;50.66
24486;BME280;13449;49.374;8.584;2023-05-19T07:10:45;100992.38;;;15.43;52.72
24486;BME280;13449;49.374;8.584;2023-05-19T07:13:12;100976.31;;;15.45;50.98
24486;BME280;13449;49.374;8.584;2023-05-19T07:15:41;100971.66;;;15.27;49.56
24486;BME280;13449;49.374;8.584;2023-05-19T07:18:08;100959.97;;;15.40;49.67
24486;BME280;13449;49.374;8.584;2023-05-19T07:20:34;100960.97;;;15.58;50.15
24486;BME280;13449;49.374;8.584;2023-05-19T07:23:01;100959.22;;;15.87;50.19
24486;BME280;13449;49.374;8.584;2023-05-19T07:25:27;100960.03;;;16.07;49.08
24486;BME280;13449;49.374;8.584;2023-05-19T07:27:56;100954.31;;;16.12;48.83
24486;BME280;13449;49.374;8.584;2023-05-19T07:30:22;100948.31;;;15.91;48.41
24486;BME280;13449;49.374;8.584;2023-05-19T07:32:49;100951.53;;;16.04;49.78
24486;BME280;13449;49.374;8.584;2023-05-19T07:35:19;100954.19;;;16.04;49.26
24486;BME280;13449;49.374;8.584;2023-05-19T07:37:45;100947.44;;;16.09;48.79
24486;BME280;13449;49.374;8.584;2023-05-19T07:40:12;100945.19;;;16.24;49.05
24486;BME280;13449;49.374;8.584;2023-05-19T07:42:39;100944.91;;;16.46;49.11
24486;BME280;13449;49.374;8.584;2023-05-19T07:45:06;100940.41;;;16.37;47.66
24486;BME280;13449;49.374;8.584;2023-05-19T07:47:33;100934.78;;;16.60;46.94
24486;BME280;13449;49.374;8.584;2023-05-19T07:50:01;100931.13;;;16.70;46.73
24486;BME280;13449;49.374;8.584;2023-05-19T07:52:27;100922.16;;;16.71;46.72
24486;BME280;13449;49.374;8.584;2023-05-19T07:54:54;100926.56;;;16.90;45.88
24486;BME280;13449;49.374;8.584;2023-05-19T07:57:21;100928.94;;;16.93;46.62
24486;BME280;13449;49.374;8.584;2023-05-19T07:59:48;100914.34;;;16.97;44.39
24486;BME280;13449;49.374;8.584;2023-05-19T08:02:18;100914.06;;;16.73;43.81
24486;BME280;13449;49.374;8.584;2023-05-19T08:04:47;100924.16;;;16.97;44.27
24486;BME280;13449;49.374;8.584;2023-05-19T08:07:14;100923.50;;;16.85;44.71
24486;BME280;13449;49.374;8.584;2023-05-19T08:09:41;100917.50;;;16.83;45.23
24486;BME280;13449;49.374;8.584;2023-05-19T08:12:07;100923.63;;;17.21;46.33
24486;BME280;13449;49.374;8.584;2023-05-19T08:14:34;100912.44;;;17.35;44.42
24486;BME280;13449;49.374;8.584;2023-05-19T08:17:03;100904.00;;;17.22;44.03
24486;BME280;13449;49.374;8.584;2023-05-19T08:19:31;100902.66;;;17.08;44.25
24486;BME280;13449;49.374;8.584;2023-05-19T08:21:57;100903.50;;;17.54;44.06
24486;BME280;13449;49.374;8.584;2023-05-19T08:24:26;100899.00;;;17.54;43.38
24486;BME280;13449;49.374;8.584;2023-05-19T08:26:58;100901.22;;;17.94;43.97
24486;BME280;13449;49.374;8.584;2023-05-19T08:29:24;100899.34;;;18.13;44.28
24486;BME280;13449;49.374;8.584;2023-05-19T08:31:51;100883.41;;;17.77;41.18
24486;BME280;13449;49.374;8.584;2023-05-19T08:34:18;100892.13;;;18.05;42.55
24486;BME280;13449;49.374;8.584;2023-05-19T08:36:45;100899.25;;;18.22;41.90
24486;BME280;13449;49.374;8.584;2023-05-19T08:39:13;100892.25;;;18.47;44.21
24486;BME280;13449;49.374;8.584;2023-05-19T08:41:41;100868.00;;;18.33;39.49
24486;BME280;13449;49.374;8.584;2023-05-19T08:44:08;100881.16;;;18.34;42.54
24486;BME280;13449;49.374;8.584;2023-05-19T08:46:35;100883.56;;;18.19;43.32
24486;BME280;13449;49.374;8.584;2023-05-19T08:49:10;100891.28;;;18.82;43.18
24486;BME280;13449;49.374;8.584;2023-05-19T08:51:45;100882.03;;;19.11;41.85
24486;BME280;13449;49.374;8.584;2023-05-19T08:54:16;100871.69;;;19.16;40.68
24486;BME280;13449;49.374;8.584;2023-05-19T08:56:44;100863.75;;;18.82;39.38
24486;BME280;13449;49.374;8.584;2023-05-19T08:59:14;100848.91;;;18.88;38.37
24486;BME280;13449;49.374;8.584;2023-05-19T09:01:45;100848.56;;;18.82;39.15
24486;BME280;13449;49.374;8.584;2023-05-19T09:04:12;100847.91;;;18.89;38.53
24486;BME280;13449;49.374;8.584;2023-05-19T09:06:40;100847.41;;;18.85;38.79
24486;BME280;13449;49.374;8.584;2023-05-19T09:09:08;100846.13;;;18.97;38.72
24486;BME280;13449;49.374;8.584;2023-05-19T09:11:37;100852.00;;;19.17;39.71
24486;BME280;13449;49.374;8.584;2023-05-19T09:14:04;100842.06;;;18.85;37.62
24486;BME280;13449;49.374;8.584;2023-05-19T09:16:33;100855.75;;;18.56;40.96
24486;BME280;13449;49.374;8.584;2023-05-19T09:19:02;100846.34;;;18.36;39.82
24486;BME280;13449;49.374;8.584;2023-05-19T09:21:33;100833.78;;;18.28;38.54
24486;BME280;13449;49.374;8.584;2023-05-19T09:24:05;100843.69;;;18.44;39.68
24486;BME280;13449;49.374;8.584;2023-05-19T09:26:35;100813.84;;;18.06;37.39
24486;BME280;13449;49.374;8.584;2023-05-19T09:29:15;100827.34;;;18.39;39.08
24486;BME280;13449;49.374;8.584;2023-05-19T09:31:52;100826.91;;;18.85;38.36
24486;BME280;13449;49.374;8.584;2023-05-19T09:34:21;100819.97;;;19.17;38.32
24486;BME280;13449;49.374;8.584;2023-05-19T09:36:49;100805.59;;;19.18;36.44
24486;BME280;13449;49.374;8.584;2023-05-19T09:39:18;100816.97;;;19.28;37.97
24486;BME280;13449;49.374;8.584;2023-05-19T09:41:45;100803.28;;;19.23;35.84
24486;BME280;13449;49.374;8.584;2023-05-19T09:44:22;100802.94;;;19.34;36.17
24486;BME280;13449;49.374;8.584;2023-05-19T09:46:50;100810.97;;;19.51;36.87
24486;BME280;13449;49.374;8.584;2023-05-19T09:49:24;100805.28;;;19.86;36.50
24486;BME280;13449;49.374;8.584;2023-05-19T09:51:55;100818.50;;;20.04;36.14
24486;BME280;13449;49.374;8.584;2023-05-19T09:54:23;100794.94;;;19.83;35.13
24486;BME280;13449;49.374;8.584;2023-05-19T09:56:57;100799.22;;;20.17;35.27
24486;BME280;13449;49.374;8.584;2023-05-19T09:59:29;100783.59;;;19.89;34.01
24486;BME280;13449;49.374;8.584;2023-05-19T10:02:02;100807.41;;;20.15;37.40
24486;BME280;13449;49.374;8.584;2023-05-19T10:04:30;100785.47;;;20.28;34.49
24486;BME280;13449;49.374;8.584;2023-05-19T10:06:57;100789.03;;;20.68;34.80
24486;BME280;13449;49.374;8.584;2023-05-19T10:09:30;100774.38;;;20.55;33.85
24486;BME280;13449;49.374;8.584;2023-05-19T10:11:57;100788.94;;;20.84;36.00
24486;BME280;13449;49.374;8.584;2023-05-19T10:14:26;100777.88;;;21.10;35.37
24486;BME280;13449;49.374;8.584;2023-05-19T10:16:54;100766.44;;;20.93;32.52
24486;BME280;13449;49.374;8.584;2023-05-19T10:19:26;100768.22;;;20.47;34.06
24486;BME280;13449;49.374;8.584;2023-05-19T10:21:54;100781.22;;;20.89;34.33
24486;BME280;13449;49.374;8.584;2023-05-19T10:24:21;100770.03;;;20.46;34.25
24486;BME280;13449;49.374;8.584;2023-05-19T10:29:32;100754.31;;;20.04;33.24
24486;BME280;13449;49.374;8.584;2023-05-19T10:32:13;100779.91;;;20.85;37.57
24486;BME280;13449;49.374;8.584;2023-05-19T10:35:07;100763.25;;;21.20;35.87
24486;BME280;13449;49.374;8.584;2023-05-19T10:37:45;100757.66;;;21.53;35.50
24486;BME280;13449;49.374;8.584;2023-05-19T10:40:28;100763.66;;;21.55;34.93
24486;BME280;13449;49.374;8.584;2023-05-19T10:43:19;100751.53;;;21.59;33.51
24486;BME280;13449;49.374;8.584;2023-05-19T10:45:48;100747.03;;;20.91;33.48
24486;BME280;13449;49.374;8.584;2023-05-19T10:48:19;100751.81;;;21.04;33.44
24486;BME280;13449;49.374;8.584;2023-05-19T10:50:52;100752.16;;;20.78;34.48
24486;BME280;13449;49.374;8.584;2023-05-19T10:53:26;100762.84;;;20.78;35.02
24486;BME280;13449;49.374;8.584;2023-05-19T10:55:56;100756.56;;;20.71;34.08
24486;BME280;13449;49.374;8.584;2023-05-19T10:58:39;100747.38;;;20.18;34.74
24486;BME280;13449;49.374;8.584;2023-05-19T11:01:17;100757.19;;;20.42;35.34
24486;BME280;13449;49.374;8.584;2023-05-19T11:03:47;100758.56;;;20.69;35.78
24486;BME280;13449;49.374;8.584;2023-05-19T11:06:25;100755.66;;;20.47;34.58
24486;BME280;13449;49.374;8.584;2023-05-19T11:08:57;100754.88;;;20.70;35.19
24486;BME280;13449;49.374;8.584;2023-05-19T11:14:13;100727.50;;;20.82;32.59
24486;BME280;13449;49.374;8.584;2023-05-19T11:16:41;100744.34;;;20.99;34.38
24486;BME280;13449;49.374;8.584;2023-05-19T11:19:16;100739.09;;;20.52;34.43
24486;BME280;13449;49.374;8.584;2023-05-19T11:21:54;100738.50;;;20.25;35.02
24486;BME280;13449;49.374;8.584;2023-05-19T11:24:43;100747.91;;;20.60;36.62
24486;BME280;13449;49.374;8.584;2023-05-19T11:27:24;100741.06;;;20.58;35.86
24486;BME280;13449;49.374;8.584;2023-05-19T11:29:54;100739.41;;;20.80;36.47
24486;BME280;13449;49.374;8.584;2023-05-19T11:32:28;100747.66;;;21.01;36.14
24486;BME280;13449;49.374;8.584;2023-05-19T11:34:56;100735.69;;;20.89;35.07
24486;BME280;13449;49.374;8.584;2023-05-19T11:37:23;100729.91;;;20.77;34.85
24486;BME280;13449;49.374;8.584;2023-05-19T11:39:50;100733.38;;;20.86;35.33
24486;BME280;13449;49.374;8.584;2023-05-19T11:42:17;100729.63;;;20.41;33.64
24486;BME280;13449;49.374;8.584;2023-05-19T11:44:44;100736.44;;;20.52;35.09
24486;BME280;13449;49.374;8.584;2023-05-19T11:47:14;100728.38;;;20.13;34.56
24486;BME280;13449;49.374;8.584;2023-05-19T11:49:42;100740.72;;;20.14;37.00
24486;BME280;13449;49.374;8.584;2023-05-19T11:52:09;100738.22;;;20.12;37.70
24486;BME280;13449;49.374;8.584;2023-05-19T11:54:37;100736.31;;;20.29;36.99
24486;BME280;13449;49.374;8.584;2023-05-19T11:57:07;100727.91;;;20.40;35.68
24486;BME280;13449;49.374;8.584;2023-05-19T11:59:37;100740.88;;;20.90;37.30
24486;BME280;13449;49.374;8.584;2023-05-19T12:02:15;100729.31;;;20.90;35.82
24486;BME280;13449;49.374;8.584;2023-05-19T12:04:43;100736.19;;;20.61;36.35
24486;BME280;13449;49.374;8.584;2023-05-19T12:07:21;100729.13;;;20.29;36.96
24486;BME280;13449;49.374;8.584;2023-05-19T12:09:49;100746.28;;;20.51;37.78
24486;BME280;13449;49.374;8.584;2023-05-19T12:12:18;100744.88;;;20.24;37.10
24486;BME280;13449;49.374;8.584;2023-05-19T12:14:46;100730.09;;;19.97;35.95
24486;BME280;13449;49.374;8.584;2023-05-19T12:17:15;100740.31;;;19.86;36.75
24486;BME280;13449;49.374;8.584;2023-05-19T12:19:47;100750.19;;;19.77;39.05
24486;BME280;13449;49.374;8.584;2023-05-19T12:22:18;100748.19;;;19.38;39.00
24486;BME280;13449;49.374;8.584;2023-05-19T12:24:45;100745.66;;;19.53;39.89
24486;BME280;13449;49.374;8.584;2023-05-19T12:29:53;100746.03;;;19.66;39.24
24486;BME280;13449;49.374;8.584;2023-05-19T12:32:25;100750.06;;;19.62;38.66
24486;BME280;13449;49.374;8.584;2023-05-19T12:34:55;100742.38;;;19.43;38.51
24486;BME280;13449;49.374;8.584;2023-05-19T12:37:25;100746.84;;;19.34;39.96
24486;BME280;13449;49.374;8.584;2023-05-19T12:39:54;100752.19;;;19.34;40.18
24486;BME280;13449;49.374;8.584;2023-05-19T12:42:25;100750.88;;;19.30;39.81
24486;BME280;13449;49.374;8.584;2023-05-19T12:44:58;100753.22;;;19.25;39.89
24486;BME280;13449;49.374;8.584;2023-05-19T12:47:34;100744.50;;;19.39;39.74
24486;BME280;13449;49.374;8.584;2023-05-19T12:52:31;100757.22;;;19.45;40.45
24486;BME280;13449;49.374;8.584;2023-05-19T12:55:02;100751.38;;;19.42;39.58
24486;BME280;13449;49.374;8.584;2023-05-19T12:57:38;100737.81;;;19.52;40.34
24486;BME280;13449;49.374;8.584;2023-05-19T13:00:18;100749.19;;;19.45;41.07
24486;BME280;13449;49.374;8.584;2023-05-19T13:05:35;100756.34;;;19.53;41.31
24486;BME280;13449;49.374;8.584;2023-05-19T13:08:07;100754.06;;;19.42;41.78
24486;BME280;13449;49.374;8.584;2023-05-19T13:10:35;100746.84;;;19.51;40.59
24486;BME280;13449;49.374;8.584;2023-05-19T13:13:02;100749.03;;;19.39;40.61
24486;BME280;13449;49.374;8.584;2023-05-19T13:15:31;100749.84;;;19.39;41.41
24486;BME280;13449;49.374;8.584;2023-05-19T13:18:04;100755.03;;;19.33;41.56
24486;BME280;13449;49.374;8.584;2023-05-19T13:20:35;100758.88;;;19.38;41.55
24486;BME280;13449;49.374;8.584;2023-05-19T13:23:02;100761.22;;;19.17;42.13